Dickens, TX (79229)

7:01 PM CDT on July 01, 2015 (GMT -0500)
WT_Meso | | Change Station
CLOSE
Current Station
Personal Weather Station
Location: Spur, TX
Elevation: 2287 ft
Nearby Weather Stations

Elev 2287 ft 33.48 °N, 100.88 °W | Updated 26 minutes ago

Clear
Clear
88 °F
Feels Like 89 °F
N
13
Wind Variable Wind from SSW
Gusts 18.0 mph

Today
High -- | Low -- °F
--% Chance of Precip.
Yesterday
High -- | Low -- °F
Precip. -- in
6:36 AM 8:57 PM
Full, 100% visible
Pressure 29.82 in
Visibility 10.0 miles
Clouds Few 300 ft
Few 7000 ft
Scattered Clouds 24000 ft
Scattered Clouds 27000 ft
Mostly Cloudy 30000 ft
Heat Index 89 °F
Dew Point 62 °F
Humidity 43%
Rainfall in
Snow Depth Not available.
UV 1 out of 12
Pollen 4.60 out of 12
Air Quality Not available.
Flu Activity Not available.
METAR KLBB 012353Z 18017KT 10SM FEW003 FEW070 SCT240 SCT270 BKN300 32/17 A2998 RMK AO2 SLP096 FU FEW003 NW T03170167 10339 20311 56012

More Conditions Fewer Conditions

Pressure 29.82 in
Visibility 10.0 miles
Clouds Few 300 ft
Few 7000 ft
Scattered Clouds 24000 ft
Scattered Clouds 27000 ft
Mostly Cloudy 30000 ft
Heat Index 89 °F
Dew Point 62 °F
Humidity 43%
Rainfall in
Snow Depth Not available.
UV 1 out of 12
Pollen 4.60 out of 12
Air Quality Not available.
Flu Activity Not available.
METAR KLBB 012353Z 18017KT 10SM FEW003 FEW070 SCT240 SCT270 BKN300 32/17 A2998 RMK AO2 SLP096 FU FEW003 NW T03170167 10339 20311 56012

More Conditions Fewer Conditions

10-Day Weather Forecast

×

Almanac

Astronomy

Jul. 01, 2015 Rise Set
Actual Time
Civil Twilight
Nautical Twilight
Astronomical Twilight
Moon
Length of Visible Light
Length of Day
Tomorrow will be .
, % of the Moon is Illuminated

Today's Extremes

State Highs State Lows

Community

WunderPhotos

Upload Photos

1,834,352 photos uploaded!

WunderBlogs® & News

Nearby

Air Quality

  Air Quality AQ Index Pollutant
Not available.

Snow Depth

Station Depth Elevation

Earthquake Activity

City Distance Mag. Time & Date
Minimum magnitude displayed is 2.5.

Coastal Water Temperatures

Place Temperature

Stations

Nearby Weather Stations

Station Location Temp. Windchill Dew Point Humidity Wind Precip. Elev Updated Type